Louisvale, South Africa
Current Conditions -  °F | °C
As of 5:00 PM on Friday 24 Oct 2014 (Local Time) from FAUP Reporting Station
Scattered Clouds Scattered Clouds  
Wind Chill: 84°   Ceiling: Unl
Heat Index: 84°   Visibility: 6mi
Dew Point: 39°   Wind: 2mph
Humidity: 20%   Direction: 40°NE
Pressure: 29.85"   Gusts: NA
Location:  28.57°S, 21.2°E
Report Text: FAUP 241500Z 04002KT 9999 SCT030 29/04 Q1011 NOSIG
Loading
Personal Weather Stations






























Interactive Weather Map
Tropical Storm Tracking
New forecast layout! Learn more

10-Day Weather Forecast

Advertisements
Track Severe Weather on mobile